Terminal Aerodrome Forecast
Issued by NWS Grand Forks, ND

Home | Current Version | Previous Version | Graphics & Text | Print | Product List | Glossary On
Versions: 1 2 3 4 5 6 7 8 9 10 11 12 13 14
000
FTUS43 KFGF 141100
TAFFAR
TAF
KFAR 141120Z 1412/1512 27008KT P6SM BKN025
     FM141700 31012KT P6SM BKN040
     FM150100 30004KT P6SM SCT050=

USA.gov is the U.S. government's official web portal to all federal, state and local government web resources and services.